createdAt,value
2018-02-06T00:23:39.056Z,11.20
2018-02-06T00:26:07.143Z,10.95
2018-02-06T00:28:34.819Z,6.70
2018-02-06T00:31:02.823Z,10.57
2018-02-06T00:33:30.953Z,12.23
2018-02-06T00:35:58.500Z,12.40
2018-02-06T00:38:26.109Z,11.07
2018-02-06T00:40:54.993Z,9.65
2018-02-06T00:43:22.565Z,9.93
2018-02-06T00:45:50.622Z,9.17
2018-02-06T00:48:21.844Z,10.57
2018-02-06T00:50:53.653Z,11.70
2018-02-06T00:53:23.149Z,10.87
2018-02-06T00:55:51.853Z,10.43
2018-02-06T00:58:20.777Z,12.40
2018-02-06T01:00:51.797Z,12.18
2018-02-06T01:03:21.562Z,13.65
2018-02-06T01:05:50.965Z,12.10
2018-02-06T01:08:19.244Z,11.82
2018-02-06T01:10:47.224Z,12.50
2018-02-06T01:13:15.278Z,14.55
2018-02-06T01:15:43.238Z,11.43
2018-02-06T01:18:10.936Z,12.33
2018-02-06T01:20:40.050Z,11.67
2018-02-06T01:23:07.645Z,11.70
2018-02-06T01:25:35.368Z,11.57
2018-02-06T01:28:02.904Z,12.90
2018-02-06T01:30:31.019Z,13.37
2018-02-06T01:32:59.433Z,11.80
2018-02-06T01:35:27.447Z,11.93
2018-02-06T01:37:55.791Z,12.70
2018-02-06T01:40:24.234Z,13.00
2018-02-06T01:42:52.758Z,11.27
2018-02-06T01:45:21.040Z,13.33
2018-02-06T01:47:49.753Z,12.20
2018-02-06T01:50:17.330Z,12.70
2018-02-06T01:52:45.302Z,10.10
2018-02-06T01:55:14.547Z,13.90
2018-02-06T01:57:42.141Z,11.60
2018-02-06T02:00:09.701Z,12.43
2018-02-06T02:02:38.684Z,12.17
2018-02-06T02:05:06.217Z,13.77
2018-02-06T02:07:34.496Z,12.98
2018-02-06T02:10:02.087Z,12.00
2018-02-06T02:12:29.632Z,12.47
2018-02-06T02:14:57.172Z,11.97
2018-02-06T02:17:24.759Z,13.77
2018-02-06T02:19:52.292Z,13.47
2018-02-06T02:22:19.828Z,13.07
2018-02-06T02:24:47.415Z,13.63
2018-02-06T02:27:15.484Z,13.17
2018-02-06T02:29:44.000Z,11.00
2018-02-06T02:32:11.544Z,11.90
2018-02-06T02:34:39.104Z,13.80
2018-02-06T02:37:06.659Z,11.80
2018-02-06T02:39:34.236Z,13.17
2018-02-06T04:40:14.959Z,15.52
2018-02-06T04:42:42.936Z,13.33
2018-02-06T04:45:10.525Z,13.17
2018-02-06T04:47:38.087Z,13.65
2018-02-06T04:50:06.424Z,14.07
2018-02-06T04:52:34.035Z,15.20
2018-02-06T04:55:01.578Z,15.47
2018-02-06T04:57:29.506Z,12.65
2018-02-06T04:59:57.458Z,14.60
2018-02-06T05:02:24.981Z,15.65
2018-02-06T05:04:53.487Z,12.70
2018-02-06T05:07:21.064Z,13.93
2018-02-06T05:09:49.030Z,15.18
2018-02-06T05:12:17.277Z,14.43
2018-02-06T05:14:44.788Z,15.03
2018-02-06T05:17:12.724Z,12.47
2018-02-06T05:19:41.466Z,15.20
2018-02-06T05:22:09.058Z,16.27
2018-02-06T05:24:36.655Z,13.70
2018-02-06T05:27:05.560Z,14.20
2018-02-06T05:29:33.473Z,14.80
2018-02-06T05:32:01.452Z,14.10
2018-02-06T05:34:29.009Z,16.87
2018-02-06T05:36:57.298Z,14.80
2018-02-06T05:39:24.841Z,15.50
2018-02-06T05:41:52.404Z,14.70
2018-02-06T05:44:19.950Z,13.80
2018-02-06T05:46:47.486Z,14.17
2018-02-06T05:49:15.070Z,15.60
2018-02-06T05:51:42.637Z,15.17
2018-02-06T05:54:10.248Z,13.40
2018-02-06T05:56:37.834Z,16.83
2018-02-06T05:59:05.487Z,13.17
2018-02-06T06:01:33.072Z,14.67
2018-02-06T06:04:00.673Z,15.33
2018-02-06T06:06:28.647Z,14.40
2018-02-06T06:08:56.913Z,14.53
2018-02-06T06:11:24.454Z,15.30
2018-02-06T06:13:52.131Z,13.20
2018-02-06T06:16:20.997Z,14.07
2018-02-06T06:18:48.538Z,14.00
2018-02-06T06:21:16.157Z,14.07
2018-02-06T06:23:43.690Z,13.90
2018-02-06T06:26:13.461Z,14.83
2018-02-06T06:28:41.151Z,14.30
2018-02-06T06:31:08.759Z,14.98
2018-02-06T06:33:36.669Z,13.47
2018-02-06T06:36:04.198Z,14.47
2018-02-06T06:38:31.766Z,14.30
2018-02-06T06:41:01.687Z,13.07
2018-02-06T06:43:29.928Z,14.90
2018-02-06T06:45:57.880Z,13.75
2018-02-06T06:48:25.448Z,13.98
2018-02-06T06:50:53.893Z,12.60
2018-02-06T06:53:21.464Z,14.30
2018-02-06T06:55:49.840Z,15.20
2018-02-06T06:58:17.954Z,14.63
2018-02-06T07:00:45.492Z,13.77
2018-02-06T07:03:13.457Z,13.93
2018-02-06T07:05:41.003Z,14.80
2018-02-06T07:08:08.582Z,14.70
2018-02-06T07:10:36.540Z,13.80
2018-02-06T07:13:04.328Z,15.13
2018-02-06T07:15:32.353Z,14.63
2018-02-06T07:17:59.898Z,13.87
2018-02-06T07:20:27.483Z,15.00
2018-02-06T07:22:55.081Z,13.93
2018-02-06T07:25:22.630Z,13.77
2018-02-06T07:27:50.604Z,14.00
2018-02-06T07:30:18.548Z,13.87
2018-02-06T07:32:46.108Z,13.53
2018-02-06T07:35:13.670Z,13.55
2018-02-06T07:37:41.815Z,14.15
2018-02-06T07:40:09.361Z,13.40
2018-02-06T07:42:36.930Z,13.13
2018-02-06T07:45:04.505Z,14.35
2018-02-06T07:47:32.063Z,14.60
2018-02-06T07:49:59.630Z,13.70
2018-02-06T07:52:27.200Z,13.40
2018-02-06T07:54:54.813Z,13.13
2018-02-06T07:57:22.394Z,13.70
2018-02-06T07:59:50.148Z,13.87
2018-02-06T08:02:17.687Z,14.68
2018-02-06T08:04:45.526Z,14.87
2018-02-06T08:07:13.593Z,13.43
2018-02-06T08:09:42.020Z,14.70
2018-02-06T08:12:09.606Z,14.03
2018-02-06T08:14:37.169Z,13.97
2018-02-06T08:17:04.728Z,12.63
2018-02-06T08:19:32.272Z,14.00
2018-02-06T08:21:59.832Z,14.50
2018-02-06T08:24:27.376Z,13.27
2018-02-06T08:26:54.913Z,14.37
2018-02-06T08:29:22.501Z,13.93
2018-02-06T08:31:50.038Z,14.90
2018-02-06T08:34:17.821Z,13.50
2018-02-06T08:36:45.683Z,13.95
2018-02-06T08:39:13.869Z,14.55
2018-02-06T08:41:41.438Z,13.63
2018-02-06T08:44:08.997Z,14.57
2018-02-06T08:46:36.568Z,13.93
2018-02-06T08:49:04.101Z,14.90
2018-02-06T08:51:31.677Z,12.97
2018-02-06T08:53:59.326Z,14.05
2018-02-06T08:56:26.904Z,14.13
2018-02-06T08:58:54.442Z,15.87
2018-02-06T09:01:22.028Z,15.10
2018-02-06T09:03:49.563Z,13.85
2018-02-06T09:06:17.217Z,14.47
2018-02-06T09:08:44.752Z,15.17
2018-02-06T09:11:12.316Z,13.70
2018-02-06T09:13:39.897Z,14.40
2018-02-06T09:16:07.449Z,15.27
2018-02-06T09:18:35.050Z,14.70
2018-02-06T09:21:02.589Z,14.95
2018-02-06T09:23:30.237Z,13.20
2018-02-06T09:25:57.817Z,14.50
2018-02-06T09:28:25.391Z,15.37
2018-02-06T09:30:52.934Z,15.27
2018-02-06T09:33:20.515Z,14.55
2018-02-06T09:35:48.157Z,16.47
2018-02-06T09:38:15.748Z,15.60
2018-02-06T09:40:43.712Z,14.83
2018-02-06T09:43:11.698Z,15.10
2018-02-06T09:45:39.641Z,14.10
2018-02-06T09:48:07.220Z,14.40
2018-02-06T09:50:35.164Z,14.82
2018-02-06T09:53:02.695Z,15.33
2018-02-06T09:55:30.267Z,14.63
2018-02-06T09:57:58.110Z,16.00
2018-02-06T10:00:26.028Z,14.53
2018-02-06T10:02:54.945Z,15.27
2018-02-06T10:05:23.439Z,15.10
2018-02-06T10:07:51.772Z,15.60
2018-02-06T10:10:19.847Z,15.60
2018-02-06T10:12:48.375Z,22.67
2018-02-06T10:15:16.124Z,20.13
2018-02-06T10:17:44.103Z,16.85
2018-02-06T10:20:12.871Z,16.83
2018-02-06T10:22:40.948Z,15.95
2018-02-06T10:25:09.167Z,17.30
2018-02-06T10:27:36.866Z,15.83
2018-02-06T10:30:04.461Z,16.00
2018-02-06T10:32:32.875Z,15.90
2018-02-06T10:35:01.205Z,16.80
2018-02-06T10:37:28.998Z,17.20
2018-02-06T10:39:58.360Z,14.70
2018-02-06T10:42:26.959Z,19.10
2018-02-06T10:44:55.460Z,16.23
2018-02-06T10:47:23.646Z,16.17
2018-02-06T10:49:51.585Z,17.10
2018-02-06T10:52:19.146Z,16.17
2018-02-06T10:54:46.699Z,17.12
2018-02-06T10:57:14.230Z,16.90
2018-02-06T10:59:41.793Z,16.83
2018-02-06T11:02:11.575Z,15.25
2018-02-06T11:04:39.126Z,17.50
2018-02-06T11:07:06.742Z,15.48
2018-02-06T11:09:34.700Z,15.37
2018-02-06T11:12:04.113Z,18.80
2018-02-06T11:14:32.835Z,16.48
2018-02-06T11:17:01.635Z,16.87
2018-02-06T11:19:29.209Z,16.97
2018-02-06T11:21:56.767Z,17.35
2018-02-06T11:24:24.875Z,15.37
2018-02-06T11:26:52.906Z,16.98
2018-02-06T11:29:21.001Z,16.50
2018-02-06T11:31:50.461Z,17.20
2018-02-06T11:34:19.121Z,17.00
2018-02-06T11:36:47.341Z,16.20
2018-02-06T11:39:15.604Z,17.80
2018-02-06T11:41:43.153Z,16.63
2018-02-06T11:44:11.290Z,16.63
2018-02-06T11:46:39.234Z,16.07
2018-02-06T11:49:07.776Z,16.70
2018-02-06T11:51:35.327Z,16.20
2018-02-06T11:54:03.121Z,16.67
2018-02-06T11:56:32.349Z,16.07
2018-02-06T11:59:01.085Z,16.77
2018-02-06T12:01:29.993Z,15.70
2018-02-06T12:03:58.300Z,15.87
2018-02-06T12:06:26.586Z,15.93
2018-02-06T12:08:54.579Z,16.00
2018-02-06T12:11:23.858Z,17.12
2018-02-06T12:13:51.426Z,16.17
2018-02-06T12:16:19.411Z,15.87
2018-02-06T12:18:48.350Z,14.60
2018-02-06T12:21:15.909Z,15.67
2018-02-06T12:23:46.214Z,15.27
2018-02-06T12:26:13.809Z,14.63
2018-02-06T12:28:42.358Z,18.60
2018-02-06T12:31:09.992Z,16.43
2018-02-06T12:33:37.661Z,20.00
2018-02-06T12:36:05.226Z,17.33
2018-02-06T12:38:34.692Z,20.63
2018-02-06T12:41:02.261Z,15.63
2018-02-06T12:43:30.290Z,17.47
2018-02-06T12:46:01.414Z,25.70
2018-02-06T12:48:29.753Z,20.13
2018-02-06T12:50:57.743Z,19.10
2018-02-06T12:53:25.914Z,17.30
2018-02-06T12:55:54.897Z,16.57
2018-02-06T12:58:22.895Z,17.27
2018-02-06T13:00:50.487Z,16.03
2018-02-06T13:03:18.897Z,15.80
2018-02-06T13:05:47.368Z,14.40
2018-02-06T13:08:16.157Z,14.27
2018-02-06T13:10:46.060Z,13.82
2018-02-06T13:13:14.501Z,15.40
2018-02-06T13:15:42.470Z,16.70
2018-02-06T13:18:10.009Z,15.77
2018-02-06T13:20:37.706Z,16.45
2018-02-06T13:23:08.224Z,15.33
2018-02-06T13:25:35.824Z,14.20
2018-02-06T13:28:04.750Z,17.57
2018-02-06T13:30:33.749Z,16.00
2018-02-06T13:33:01.311Z,15.93
2018-02-06T13:35:28.889Z,16.20
2018-02-06T13:37:58.955Z,15.70
2018-02-06T13:40:26.698Z,15.97
2018-02-06T13:42:55.384Z,17.10
2018-02-06T13:45:23.827Z,16.83
2018-02-06T13:47:51.382Z,15.40
2018-02-06T13:50:19.876Z,16.90
2018-02-06T13:52:48.317Z,14.30
2018-02-06T13:55:16.273Z,15.73
2018-02-06T13:57:46.399Z,14.97
2018-02-06T14:00:14.245Z,15.20
2018-02-06T14:02:42.077Z,16.50
2018-02-06T14:05:09.849Z,15.35
2018-02-06T14:07:37.399Z,15.20
2018-02-06T14:10:05.031Z,15.43
2018-02-06T14:12:32.579Z,15.63
2018-02-06T14:15:00.572Z,15.67
2018-02-06T14:17:28.100Z,15.43
2018-02-06T14:19:56.693Z,14.77
2018-02-06T14:22:26.250Z,15.07
2018-02-06T14:24:55.219Z,15.67
2018-02-06T14:27:22.829Z,15.13
2018-02-06T14:29:50.768Z,16.60
2018-02-06T14:32:19.104Z,15.70
2018-02-06T14:34:46.661Z,15.27
2018-02-06T14:37:14.268Z,15.50
2018-02-06T14:39:42.774Z,14.80
2018-02-06T14:42:11.271Z,15.97
2018-02-06T14:44:39.049Z,16.57
2018-02-06T14:47:06.571Z,17.70
2018-02-06T14:49:35.641Z,15.40
2018-02-06T14:52:03.237Z,18.73
2018-02-06T14:54:30.889Z,14.17
2018-02-06T14:56:59.732Z,14.87
2018-02-06T14:59:28.160Z,16.70
2018-02-06T15:01:57.500Z,17.03
2018-02-06T15:04:25.961Z,16.80
2018-02-06T15:06:54.157Z,18.50
2018-02-06T15:09:22.752Z,15.70
2018-02-06T15:11:50.679Z,16.97
2018-02-06T15:14:18.957Z,15.30
2018-02-06T15:16:47.300Z,19.27
2018-02-06T15:19:15.430Z,16.33
2018-02-06T15:21:42.976Z,19.43
2018-02-06T15:24:10.928Z,18.70
2018-02-06T15:26:40.253Z,17.33
2018-02-06T15:29:08.023Z,18.30
2018-02-06T15:31:36.257Z,17.10
2018-02-06T15:34:03.844Z,17.10
2018-02-06T15:36:31.863Z,16.40
2018-02-06T15:38:59.468Z,16.00
2018-02-06T15:41:28.337Z,17.95
2018-02-06T15:43:57.602Z,17.40
2018-02-06T15:46:25.175Z,16.80
2018-02-06T15:48:53.347Z,16.45
2018-02-06T15:51:20.913Z,16.90
2018-02-06T15:53:48.506Z,16.17
2018-02-06T15:56:16.787Z,15.20
2018-02-06T15:58:44.828Z,15.33
2018-02-06T16:01:16.861Z,16.53
2018-02-06T16:03:46.083Z,16.40
2018-02-06T16:06:13.701Z,16.80
2018-02-06T16:08:41.293Z,17.23
2018-02-06T16:11:09.315Z,17.47
2018-02-06T16:13:37.309Z,17.20
2018-02-06T16:16:04.909Z,25.23
2018-02-06T16:18:32.486Z,26.50
2018-02-06T16:21:00.032Z,19.93
2018-02-06T16:23:27.639Z,22.73
2018-02-06T16:25:55.171Z,31.70
2018-02-06T16:28:22.785Z,27.75
2018-02-06T16:30:50.313Z,24.00
2018-02-06T16:33:24.156Z,20.17
2018-02-06T16:35:52.726Z,22.07
2018-02-06T16:38:22.441Z,19.43
2018-02-06T16:40:51.100Z,21.90
2018-02-06T16:43:20.851Z,22.67
2018-02-06T16:45:49.399Z,21.03
2018-02-06T16:48:16.954Z,20.00
2018-02-06T16:50:44.539Z,17.65
2018-02-06T16:53:12.230Z,16.67
2018-02-06T16:55:40.003Z,17.15
2018-02-06T16:58:08.535Z,16.53
2018-02-06T17:00:36.100Z,17.17
2018-02-06T17:03:03.680Z,17.13
2018-02-06T17:05:31.221Z,17.87
2018-02-06T17:07:58.793Z,18.65
2018-02-06T17:10:27.121Z,16.77
2018-02-06T17:12:54.648Z,18.63
2018-02-06T17:15:22.305Z,17.58
2018-02-06T17:17:50.579Z,17.40
2018-02-06T17:20:18.122Z,18.83
2018-02-06T17:22:45.695Z,17.77
2018-02-06T17:25:13.451Z,17.10
2018-02-06T17:27:41.006Z,17.93
2018-02-06T17:30:08.556Z,18.13
2018-02-06T17:32:36.139Z,17.55
2018-02-06T17:35:03.734Z,17.23
2018-02-06T17:37:31.693Z,18.00
2018-02-06T17:39:59.672Z,17.90
2018-02-06T17:42:27.639Z,22.17
2018-02-06T17:44:55.590Z,20.87
2018-02-06T17:47:23.124Z,22.10
2018-02-06T17:49:52.273Z,20.58
2018-02-06T17:52:19.901Z,19.30
2018-02-06T17:54:47.476Z,19.30
2018-02-06T17:57:15.429Z,17.43
2018-02-06T17:59:42.989Z,17.73
2018-02-06T18:02:10.550Z,17.08
2018-02-06T18:04:38.112Z,18.10
2018-02-06T18:07:06.068Z,15.98
2018-02-06T18:09:33.622Z,16.10
2018-02-06T18:12:01.215Z,16.55
2018-02-06T18:14:30.099Z,16.50
2018-02-06T18:16:58.033Z,15.80
2018-02-06T18:19:26.142Z,16.60
2018-02-06T18:21:54.190Z,16.57
2018-02-06T18:24:22.077Z,16.10
2018-02-06T18:26:50.775Z,15.97
2018-02-06T18:29:18.708Z,16.15
2018-02-06T18:31:46.262Z,15.70
2018-02-06T18:34:13.844Z,16.90
2018-02-06T18:36:41.817Z,16.73
2018-02-06T18:39:09.764Z,17.47
2018-02-06T18:41:37.314Z,17.30
2018-02-06T18:44:04.872Z,16.03
2018-02-06T18:46:32.421Z,16.20
2018-02-06T18:49:00.906Z,16.08
2018-02-06T18:51:28.721Z,17.58
2018-02-06T18:53:56.424Z,16.30
2018-02-06T18:56:23.947Z,17.60
2018-02-06T18:58:51.490Z,17.83
2018-02-06T19:01:19.455Z,18.63
2018-02-06T19:03:47.453Z,20.20
2018-02-06T19:06:15.000Z,19.37
2018-02-06T19:08:43.654Z,19.33
2018-02-06T19:11:11.196Z,18.90
2018-02-06T19:13:38.731Z,19.67
2018-02-06T19:16:06.277Z,18.93
2018-02-06T19:18:34.770Z,17.30
2018-02-06T19:21:03.040Z,16.77
2018-02-06T19:23:30.547Z,18.17
2018-02-06T19:25:58.123Z,15.90
2018-02-06T19:28:25.663Z,17.13
2018-02-06T19:30:53.212Z,16.63
2018-02-06T19:33:20.793Z,17.95
2018-02-06T19:35:48.381Z,17.50
2018-02-06T19:38:17.144Z,18.90
2018-02-06T19:40:45.119Z,17.58
2018-02-06T19:43:13.361Z,19.97
2018-02-06T19:45:40.889Z,19.80
2018-02-06T19:48:08.457Z,20.43
2018-02-06T19:50:36.029Z,20.47
2018-02-06T19:53:03.588Z,22.77
2018-02-06T19:55:31.153Z,20.12
2018-02-06T19:57:58.804Z,22.00
2018-02-06T20:00:26.362Z,19.23
2018-02-06T20:02:53.928Z,20.10
2018-02-06T20:05:21.553Z,20.13
2018-02-06T20:07:49.093Z,21.33
2018-02-06T20:10:17.052Z,21.50
2018-02-06T20:12:44.585Z,20.75
2018-02-06T20:15:12.157Z,18.40
2018-02-06T20:17:39.762Z,20.37
2018-02-06T20:20:07.708Z,20.23
2018-02-06T20:22:35.652Z,20.43
2018-02-06T20:25:03.242Z,19.27
2018-02-06T20:27:31.205Z,20.50
2018-02-06T20:29:59.190Z,21.42
2018-02-06T20:32:27.136Z,21.95
2018-02-06T20:34:55.329Z,21.67
2018-02-06T20:37:22.882Z,20.90
2018-02-06T20:39:50.865Z,21.30
2018-02-06T20:42:18.837Z,23.10
2018-02-06T20:44:46.400Z,20.87
2018-02-06T20:47:13.978Z,21.00
2018-02-06T20:49:41.527Z,21.60
2018-02-06T20:52:09.111Z,22.20
2018-02-06T20:54:36.682Z,22.00
2018-02-06T20:57:04.367Z,22.07
2018-02-06T20:59:32.323Z,21.83
2018-02-06T21:01:59.898Z,21.20
2018-02-06T21:04:27.913Z,21.73
2018-02-06T21:06:55.446Z,19.57
2018-02-06T21:09:23.806Z,21.80
2018-02-06T21:11:51.792Z,20.30
2018-02-06T21:14:19.362Z,21.13
2018-02-06T21:16:47.300Z,21.97
2018-02-06T21:19:19.317Z,21.30
2018-02-06T21:21:47.078Z,21.67
2018-02-06T21:24:14.655Z,22.90
2018-02-06T21:26:42.259Z,23.07
2018-02-06T21:29:10.190Z,22.45
2018-02-06T21:31:37.876Z,21.62
2018-02-06T21:34:05.437Z,21.30
2018-02-06T21:36:34.267Z,22.10
2018-02-06T21:39:01.836Z,21.00
2018-02-06T21:41:29.368Z,21.17
2018-02-06T21:43:57.798Z,21.40
2018-02-06T21:46:25.350Z,20.03
2018-02-06T21:48:52.938Z,22.40
2018-02-06T21:51:20.511Z,21.30
2018-02-06T21:53:48.449Z,21.53
2018-02-06T21:56:16.119Z,20.25
2018-02-06T21:58:43.937Z,20.17
2018-02-06T22:01:11.480Z,21.07
2018-02-06T22:03:39.039Z,20.50
2018-02-06T22:06:06.630Z,19.90
2018-02-06T22:08:34.196Z,20.60
2018-02-06T22:11:01.848Z,20.40
2018-02-06T22:13:29.400Z,21.50
2018-02-06T22:15:57.941Z,21.20
2018-02-06T22:18:25.641Z,21.20
2018-02-06T22:20:53.282Z,18.42
2018-02-06T22:23:21.224Z,20.90
2018-02-06T22:25:48.777Z,23.97
2018-02-06T22:28:16.336Z,21.73
2018-02-06T22:30:44.577Z,21.50
2018-02-06T22:33:12.125Z,23.50
2018-02-06T22:35:39.866Z,20.77
2018-02-06T22:38:07.685Z,23.50
2018-02-06T22:40:35.540Z,21.77
2018-02-06T22:43:03.118Z,22.30
2018-02-06T22:45:31.331Z,20.65
2018-02-06T22:47:58.890Z,21.07
2018-02-06T22:50:27.035Z,19.03
2018-02-06T22:52:54.598Z,22.20
2018-02-06T22:55:22.541Z,22.43
2018-02-06T22:57:50.106Z,22.27
2018-02-06T23:00:23.452Z,21.40
2018-02-06T23:02:51.062Z,22.30
2018-02-06T23:05:18.613Z,23.43
2018-02-06T23:07:46.254Z,23.70
2018-02-06T23:10:13.841Z,21.98
2018-02-06T23:12:41.398Z,22.37
2018-02-06T23:15:09.103Z,20.57
2018-02-06T23:17:37.050Z,21.75
2018-02-06T23:20:04.915Z,22.67
2018-02-06T23:22:32.635Z,19.90
2018-02-06T23:25:03.091Z,20.40
2018-02-06T23:27:35.083Z,24.17
2018-02-06T23:30:03.630Z,20.50
2018-02-06T23:32:31.184Z,25.20
2018-02-06T23:34:58.766Z,23.10
2018-02-06T23:37:26.656Z,18.77
2018-02-06T23:39:56.668Z,21.20
2018-02-06T23:42:24.385Z,22.03
2018-02-06T23:44:52.743Z,20.70
2018-02-06T23:47:20.766Z,18.93
2018-02-06T23:49:48.660Z,21.80
2018-02-06T23:52:17.656Z,25.52
2018-02-06T23:54:45.649Z,17.77
2018-02-06T23:57:13.200Z,20.03
2018-02-06T23:59:40.764Z,17.60
